sensor_id;sensor_type;location;lat;lon;timestamp;pressure;altitude;pressure_sealevel;temperature;humidity
52137;BME280;69622;49.570;10.986;2024-03-29T00:01:35;96911.69;;;4.70;100.00
52137;BME280;69622;49.570;10.986;2024-03-29T00:04:36;96914.09;;;4.96;100.00
52137;BME280;69622;49.570;10.986;2024-03-29T00:07:36;96918.59;;;4.59;100.00
52137;BME280;69622;49.570;10.986;2024-03-29T00:10:37;96917.53;;;4.72;100.00
52137;BME280;69622;49.570;10.986;2024-03-29T00:13:39;96907.97;;;4.74;100.00
52137;BME280;69622;49.570;10.986;2024-03-29T00:16:39;96907.75;;;4.89;100.00
52137;BME280;69622;49.570;10.986;2024-03-29T00:19:40;96905.13;;;4.66;100.00
52137;BME280;69622;49.570;10.986;2024-03-29T00:22:41;96911.25;;;4.76;100.00
52137;BME280;69622;49.570;10.986;2024-03-29T00:25:41;96903.16;;;4.59;100.00
52137;BME280;69622;49.570;10.986;2024-03-29T00:28:42;96904.28;;;4.55;100.00
52137;BME280;69622;49.570;10.986;2024-03-29T00:31:42;96906.78;;;4.67;100.00
52137;BME280;69622;49.570;10.986;2024-03-29T00:34:43;96908.38;;;4.46;100.00
52137;BME280;69622;49.570;10.986;2024-03-29T00:37:44;96913.78;;;4.65;100.00
52137;BME280;69622;49.570;10.986;2024-03-29T00:40:45;96919.72;;;4.55;100.00
52137;BME280;69622;49.570;10.986;2024-03-29T00:43:45;96915.50;;;4.54;100.00
52137;BME280;69622;49.570;10.986;2024-03-29T00:46:45;96900.78;;;4.56;100.00
52137;BME280;69622;49.570;10.986;2024-03-29T00:49:46;96888.31;;;4.85;100.00
52137;BME280;69622;49.570;10.986;2024-03-29T00:52:46;96875.25;;;4.53;100.00
52137;BME280;69622;49.570;10.986;2024-03-29T00:55:48;96873.88;;;4.60;100.00
52137;BME280;69622;49.570;10.986;2024-03-29T00:58:49;96855.50;;;4.53;100.00
52137;BME280;69622;49.570;10.986;2024-03-29T01:01:49;96846.09;;;4.41;100.00
52137;BME280;69622;49.570;10.986;2024-03-29T01:04:50;96847.19;;;4.49;100.00
52137;BME280;69622;49.570;10.986;2024-03-29T01:07:51;96826.13;;;4.56;100.00
52137;BME280;69622;49.570;10.986;2024-03-29T01:10:51;96828.97;;;4.64;100.00
52137;BME280;69622;49.570;10.986;2024-03-29T01:13:52;96839.44;;;4.38;100.00
52137;BME280;69622;49.570;10.986;2024-03-29T01:16:53;96844.88;;;4.69;100.00
52137;BME280;69622;49.570;10.986;2024-03-29T01:19:53;96839.72;;;4.58;100.00
52137;BME280;69622;49.570;10.986;2024-03-29T01:22:54;96839.72;;;4.69;100.00
52137;BME280;69622;49.570;10.986;2024-03-29T01:25:55;96844.72;;;4.48;100.00
52137;BME280;69622;49.570;10.986;2024-03-29T01:28:55;96841.25;;;4.71;100.00
52137;BME280;69622;49.570;10.986;2024-03-29T01:31:56;96837.63;;;4.63;100.00
52137;BME280;69622;49.570;10.986;2024-03-29T01:34:56;96838.19;;;4.55;100.00
52137;BME280;69622;49.570;10.986;2024-03-29T01:37:57;96814.69;;;4.60;100.00
52137;BME280;69622;49.570;10.986;2024-03-29T01:40:57;96808.59;;;4.61;100.00
52137;BME280;69622;49.570;10.986;2024-03-29T01:43:58;96818.31;;;4.79;100.00
52137;BME280;69622;49.570;10.986;2024-03-29T01:46:58;96823.00;;;4.63;100.00
52137;BME280;69622;49.570;10.986;2024-03-29T01:49:59;96841.84;;;4.75;100.00
52137;BME280;69622;49.570;10.986;2024-03-29T01:53:00;96832.13;;;4.78;100.00
52137;BME280;69622;49.570;10.986;2024-03-29T01:56:01;96831.53;;;4.97;100.00
52137;BME280;69622;49.570;10.986;2024-03-29T01:59:03;96821.56;;;4.70;100.00
52137;BME280;69622;49.570;10.986;2024-03-29T02:02:04;96834.81;;;4.99;100.00
52137;BME280;69622;49.570;10.986;2024-03-29T02:05:05;96815.84;;;5.11;100.00
52137;BME280;69622;49.570;10.986;2024-03-29T02:08:07;96817.13;;;4.84;100.00
52137;BME280;69622;49.570;10.986;2024-03-29T02:11:08;96824.41;;;5.12;100.00
52137;BME280;69622;49.570;10.986;2024-03-29T02:14:08;96805.69;;;4.76;100.00
52137;BME280;69622;49.570;10.986;2024-03-29T02:17:09;96806.72;;;4.85;100.00
52137;BME280;69622;49.570;10.986;2024-03-29T02:20:10;96805.69;;;4.76;100.00
52137;BME280;69622;49.570;10.986;2024-03-29T02:23:14;96811.63;;;5.10;100.00
52137;BME280;69622;49.570;10.986;2024-03-29T02:26:16;96808.13;;;5.00;100.00
52137;BME280;69622;49.570;10.986;2024-03-29T02:29:16;96803.44;;;5.17;100.00
52137;BME280;69622;49.570;10.986;2024-03-29T02:32:17;96793.59;;;4.99;100.00
52137;BME280;69622;49.570;10.986;2024-03-29T02:35:17;96789.47;;;5.19;100.00
52137;BME280;69622;49.570;10.986;2024-03-29T02:38:18;96792.41;;;5.26;100.00
52137;BME280;69622;49.570;10.986;2024-03-29T02:41:18;96782.13;;;5.15;100.00
52137;BME280;69622;49.570;10.986;2024-03-29T02:44:19;96782.25;;;5.13;100.00
52137;BME280;69622;49.570;10.986;2024-03-29T02:47:19;96774.75;;;5.21;100.00
52137;BME280;69622;49.570;10.986;2024-03-29T02:50:20;96772.75;;;5.25;100.00
52137;BME280;69622;49.570;10.986;2024-03-29T02:53:20;96766.66;;;5.15;100.00
52137;BME280;69622;49.570;10.986;2024-03-29T02:56:21;96758.16;;;5.35;100.00
52137;BME280;69622;49.570;10.986;2024-03-29T02:59:23;96767.75;;;5.55;100.00
52137;BME280;69622;49.570;10.986;2024-03-29T03:02:24;96774.81;;;5.42;100.00
52137;BME280;69622;49.570;10.986;2024-03-29T03:05:24;96763.56;;;5.43;100.00
52137;BME280;69622;49.570;10.986;2024-03-29T03:08:25;96755.28;;;5.60;100.00
52137;BME280;69622;49.570;10.986;2024-03-29T03:11:44;96750.84;;;5.51;100.00
52137;BME280;69622;49.570;10.986;2024-03-29T03:14:44;96747.41;;;5.41;100.00
52137;BME280;69622;49.570;10.986;2024-03-29T03:17:45;96766.22;;;5.53;100.00
52137;BME280;69622;49.570;10.986;2024-03-29T03:20:55;96752.03;;;5.58;100.00
52137;BME280;69622;49.570;10.986;2024-03-29T03:23:58;96759.78;;;5.47;100.00
52137;BME280;69622;49.570;10.986;2024-03-29T03:26:58;96758.56;;;5.62;100.00
52137;BME280;69622;49.570;10.986;2024-03-29T03:29:59;96751.66;;;5.52;100.00
52137;BME280;69622;49.570;10.986;2024-03-29T03:32:59;96742.78;;;5.77;100.00
52137;BME280;69622;49.570;10.986;2024-03-29T03:36:00;96749.50;;;5.36;100.00
52137;BME280;69622;49.570;10.986;2024-03-29T03:39:00;96769.63;;;5.53;100.00
52137;BME280;69622;49.570;10.986;2024-03-29T03:42:01;96763.41;;;5.56;100.00
52137;BME280;69622;49.570;10.986;2024-03-29T03:45:01;96753.25;;;5.75;100.00
52137;BME280;69622;49.570;10.986;2024-03-29T03:48:05;96762.81;;;5.84;100.00
52137;BME280;69622;49.570;10.986;2024-03-29T03:51:05;96766.13;;;5.75;100.00
52137;BME280;69622;49.570;10.986;2024-03-29T03:54:06;96754.38;;;5.82;100.00
52137;BME280;69622;49.570;10.986;2024-03-29T03:57:06;96767.84;;;5.86;100.00
52137;BME280;69622;49.570;10.986;2024-03-29T04:00:07;96773.31;;;5.71;100.00
52137;BME280;69622;49.570;10.986;2024-03-29T04:03:09;96771.00;;;5.89;100.00
52137;BME280;69622;49.570;10.986;2024-03-29T04:06:09;96771.41;;;6.06;100.00
52137;BME280;69622;49.570;10.986;2024-03-29T04:09:10;96759.75;;;5.90;100.00
52137;BME280;69622;49.570;10.986;2024-03-29T04:12:11;96744.72;;;5.95;100.00
52137;BME280;69622;49.570;10.986;2024-03-29T04:15:11;96760.84;;;5.77;100.00
52137;BME280;69622;49.570;10.986;2024-03-29T04:18:12;96756.53;;;5.66;100.00
52137;BME280;69622;49.570;10.986;2024-03-29T04:21:12;96777.00;;;5.90;100.00
52137;BME280;69622;49.570;10.986;2024-03-29T04:24:13;96762.28;;;6.02;100.00
52137;BME280;69622;49.570;10.986;2024-03-29T04:27:13;96772.22;;;6.06;100.00
52137;BME280;69622;49.570;10.986;2024-03-29T04:30:14;96756.25;;;5.91;100.00
52137;BME280;69622;49.570;10.986;2024-03-29T04:33:14;96766.63;;;6.01;100.00
52137;BME280;69622;49.570;10.986;2024-03-29T04:36:15;96780.34;;;6.02;100.00
52137;BME280;69622;49.570;10.986;2024-03-29T04:39:15;96785.56;;;5.79;100.00
52137;BME280;69622;49.570;10.986;2024-03-29T04:42:16;96783.97;;;5.99;100.00
52137;BME280;69622;49.570;10.986;2024-03-29T04:45:16;96777.00;;;6.11;100.00
52137;BME280;69622;49.570;10.986;2024-03-29T04:48:17;96786.22;;;6.04;100.00
52137;BME280;69622;49.570;10.986;2024-03-29T04:51:17;96791.88;;;6.18;100.00
52137;BME280;69622;49.570;10.986;2024-03-29T04:54:18;96804.56;;;6.10;100.00
52137;BME280;69622;49.570;10.986;2024-03-29T04:57:18;96795.31;;;6.28;100.00
52137;BME280;69622;49.570;10.986;2024-03-29T05:00:19;96806.47;;;6.29;100.00
52137;BME280;69622;49.570;10.986;2024-03-29T05:03:20;96810.63;;;6.41;100.00
52137;BME280;69622;49.570;10.986;2024-03-29T05:06:21;96813.47;;;6.38;100.00
52137;BME280;69622;49.570;10.986;2024-03-29T05:09:22;96834.84;;;6.29;100.00
52137;BME280;69622;49.570;10.986;2024-03-29T05:12:23;96846.13;;;6.28;100.00
52137;BME280;69622;49.570;10.986;2024-03-29T05:15:23;96848.34;;;6.33;100.00
52137;BME280;69622;49.570;10.986;2024-03-29T05:18:24;96858.72;;;6.21;100.00
52137;BME280;69622;49.570;10.986;2024-03-29T05:21:24;96835.75;;;6.39;100.00
52137;BME280;69622;49.570;10.986;2024-03-29T05:24:25;96848.09;;;6.36;100.00
52137;BME280;69622;49.570;10.986;2024-03-29T05:27:26;96842.16;;;6.24;100.00
52137;BME280;69622;49.570;10.986;2024-03-29T05:30:27;96856.53;;;6.38;100.00
52137;BME280;69622;49.570;10.986;2024-03-29T05:33:29;96860.88;;;6.37;100.00
52137;BME280;69622;49.570;10.986;2024-03-29T05:36:30;96835.94;;;6.26;100.00
52137;BME280;69622;49.570;10.986;2024-03-29T05:39:30;96882.09;;;6.41;100.00
52137;BME280;69622;49.570;10.986;2024-03-29T05:42:32;96851.69;;;6.44;100.00
52137;BME280;69622;49.570;10.986;2024-03-29T05:45:33;96847.91;;;6.48;100.00
52137;BME280;69622;49.570;10.986;2024-03-29T05:48:34;96824.97;;;6.55;100.00
52137;BME280;69622;49.570;10.986;2024-03-29T05:51:34;96831.97;;;6.43;100.00
52137;BME280;69622;49.570;10.986;2024-03-29T05:54:36;96828.47;;;6.75;100.00
52137;BME280;69622;49.570;10.986;2024-03-29T05:57:36;96837.50;;;6.59;100.00
52137;BME280;69622;49.570;10.986;2024-03-29T06:00:41;96836.63;;;6.70;100.00
52137;BME280;69622;49.570;10.986;2024-03-29T06:03:41;96824.22;;;6.64;100.00
52137;BME280;69622;49.570;10.986;2024-03-29T06:06:43;96839.63;;;6.96;100.00
52137;BME280;69622;49.570;10.986;2024-03-29T06:09:43;96855.41;;;7.03;100.00
52137;BME280;69622;49.570;10.986;2024-03-29T06:12:44;96859.28;;;6.87;100.00
52137;BME280;69622;49.570;10.986;2024-03-29T06:15:44;96844.84;;;6.85;100.00
52137;BME280;69622;49.570;10.986;2024-03-29T06:19:03;96851.47;;;6.99;100.00
52137;BME280;69622;49.570;10.986;2024-03-29T06:22:04;96853.28;;;6.87;100.00
52137;BME280;69622;49.570;10.986;2024-03-29T06:25:04;96851.47;;;6.78;100.00
52137;BME280;69622;49.570;10.986;2024-03-29T06:28:05;96859.28;;;7.18;100.00
52137;BME280;69622;49.570;10.986;2024-03-29T06:31:06;96844.59;;;6.88;100.00
52137;BME280;69622;49.570;10.986;2024-03-29T06:34:06;96864.97;;;6.81;100.00
52137;BME280;69622;49.570;10.986;2024-03-29T06:37:07;96838.63;;;6.87;100.00
52137;BME280;69622;49.570;10.986;2024-03-29T06:40:08;96820.31;;;7.00;100.00
52137;BME280;69622;49.570;10.986;2024-03-29T06:43:09;96840.81;;;6.92;100.00
52137;BME280;69622;49.570;10.986;2024-03-29T06:46:11;96847.72;;;6.91;100.00
52137;BME280;69622;49.570;10.986;2024-03-29T06:49:12;96830.59;;;6.90;100.00
52137;BME280;69622;49.570;10.986;2024-03-29T06:52:12;96853.84;;;7.11;100.00
52137;BME280;69622;49.570;10.986;2024-03-29T06:55:13;96821.53;;;6.96;100.00
52137;BME280;69622;49.570;10.986;2024-03-29T06:58:14;96807.69;;;7.07;100.00
52137;BME280;69622;49.570;10.986;2024-03-29T07:01:14;96809.31;;;7.08;100.00
52137;BME280;69622;49.570;10.986;2024-03-29T07:04:15;96807.84;;;7.15;100.00
52137;BME280;69622;49.570;10.986;2024-03-29T07:07:15;96800.75;;;7.07;100.00
52137;BME280;69622;49.570;10.986;2024-03-29T07:10:16;96794.00;;;7.26;100.00
52137;BME280;69622;49.570;10.986;2024-03-29T07:13:16;96800.00;;;7.36;100.00
52137;BME280;69622;49.570;10.986;2024-03-29T07:16:17;96786.38;;;7.14;100.00
52137;BME280;69622;49.570;10.986;2024-03-29T07:19:17;96779.44;;;7.15;100.00
52137;BME280;69622;49.570;10.986;2024-03-29T07:22:19;96785.72;;;7.32;100.00
52137;BME280;69622;49.570;10.986;2024-03-29T07:25:20;96802.59;;;7.36;100.00
52137;BME280;69622;49.570;10.986;2024-03-29T07:28:21;96816.41;;;7.65;100.00
52137;BME280;69622;49.570;10.986;2024-03-29T07:31:21;96822.28;;;7.87;100.00
52137;BME280;69622;49.570;10.986;2024-03-29T07:34:22;96807.56;;;7.97;100.00
52137;BME280;69622;49.570;10.986;2024-03-29T07:37:22;96797.63;;;8.02;100.00
52137;BME280;69622;49.570;10.986;2024-03-29T07:40:23;96796.97;;;8.38;100.00
52137;BME280;69622;49.570;10.986;2024-03-29T07:43:23;96787.38;;;8.49;100.00
52137;BME280;69622;49.570;10.986;2024-03-29T07:46:27;96810.00;;;8.47;100.00
52137;BME280;69622;49.570;10.986;2024-03-29T07:49:28;96790.09;;;8.57;100.00
52137;BME280;69622;49.570;10.986;2024-03-29T07:52:28;96834.66;;;8.70;100.00
52137;BME280;69622;49.570;10.986;2024-03-29T07:55:30;96847.09;;;9.04;100.00
52137;BME280;69622;49.570;10.986;2024-03-29T07:58:31;96822.19;;;8.83;100.00
52137;BME280;69622;49.570;10.986;2024-03-29T08:01:32;96828.22;;;8.84;100.00
52137;BME280;69622;49.570;10.986;2024-03-29T08:04:32;96815.84;;;9.05;98.04
52137;BME280;69622;49.570;10.986;2024-03-29T08:07:33;96833.38;;;9.21;100.00
52137;BME280;69622;49.570;10.986;2024-03-29T08:10:33;96822.09;;;9.40;96.18
52137;BME280;69622;49.570;10.986;2024-03-29T08:13:34;96807.91;;;9.61;99.35
52137;BME280;69622;49.570;10.986;2024-03-29T08:16:35;96794.03;;;9.53;93.59
52137;BME280;69622;49.570;10.986;2024-03-29T08:19:36;96791.97;;;9.74;93.39
52137;BME280;69622;49.570;10.986;2024-03-29T08:22:36;96805.03;;;9.82;90.96
52137;BME280;69622;49.570;10.986;2024-03-29T08:25:37;96805.03;;;10.18;88.91
52137;BME280;69622;49.570;10.986;2024-03-29T08:28:38;96788.88;;;10.24;89.16
52137;BME280;69622;49.570;10.986;2024-03-29T08:31:38;96787.59;;;9.93;90.12
52137;BME280;69622;49.570;10.986;2024-03-29T08:34:39;96775.50;;;10.01;86.33
52137;BME280;69622;49.570;10.986;2024-03-29T08:37:39;96773.50;;;10.13;86.62
52137;BME280;69622;49.570;10.986;2024-03-29T08:40:41;96772.69;;;10.30;87.60
52137;BME280;69622;49.570;10.986;2024-03-29T08:43:43;96771.38;;;10.26;85.05
52137;BME280;69622;49.570;10.986;2024-03-29T08:46:44;96765.22;;;10.27;91.22
52137;BME280;69622;49.570;10.986;2024-03-29T08:49:45;96765.06;;;10.29;87.56
52137;BME280;69622;49.570;10.986;2024-03-29T08:52:45;96764.75;;;10.32;89.81
52137;BME280;69622;49.570;10.986;2024-03-29T08:55:46;96765.03;;;10.55;87.46
52137;BME280;69622;49.570;10.986;2024-03-29T08:58:47;96792.63;;;10.47;86.77
52137;BME280;69622;49.570;10.986;2024-03-29T09:01:47;96796.66;;;10.24;90.92
52137;BME280;69622;49.570;10.986;2024-03-29T09:04:50;96816.63;;;10.41;90.74
52137;BME280;69622;49.570;10.986;2024-03-29T09:07:51;96842.06;;;10.38;100.00
52137;BME280;69622;49.570;10.986;2024-03-29T09:10:51;96843.56;;;10.23;100.00
52137;BME280;69622;49.570;10.986;2024-03-29T09:13:52;96852.91;;;9.98;100.00
52137;BME280;69622;49.570;10.986;2024-03-29T09:16:54;96862.91;;;9.47;100.00
52137;BME280;69622;49.570;10.986;2024-03-29T09:19:54;96867.59;;;9.34;100.00
52137;BME280;69622;49.570;10.986;2024-03-29T09:22:55;96880.53;;;8.97;100.00
52137;BME280;69622;49.570;10.986;2024-03-29T09:25:56;96887.97;;;8.73;100.00
52137;BME280;69622;49.570;10.986;2024-03-29T09:28:57;96901.06;;;8.52;100.00
52137;BME280;69622;49.570;10.986;2024-03-29T09:31:58;96915.94;;;8.50;100.00
52137;BME280;69622;49.570;10.986;2024-03-29T09:34:59;96914.19;;;8.40;100.00
52137;BME280;69622;49.570;10.986;2024-03-29T09:38:00;96927.81;;;8.72;100.00
52137;BME280;69622;49.570;10.986;2024-03-29T09:41:10;96933.41;;;8.38;100.00
52137;BME280;69622;49.570;10.986;2024-03-29T09:44:11;96943.91;;;8.56;100.00
52137;BME280;69622;49.570;10.986;2024-03-29T09:47:16;96955.78;;;8.68;100.00
52137;BME280;69622;49.570;10.986;2024-03-29T09:50:17;96943.88;;;8.46;100.00
52137;BME280;69622;49.570;10.986;2024-03-29T09:53:19;96948.78;;;8.49;100.00
52137;BME280;69622;49.570;10.986;2024-03-29T09:56:21;96949.38;;;8.53;100.00
52137;BME280;69622;49.570;10.986;2024-03-29T09:59:22;96953.41;;;8.36;100.00
52137;BME280;69622;49.570;10.986;2024-03-29T10:02:28;96964.47;;;8.86;100.00
52137;BME280;69622;49.570;10.986;2024-03-29T10:05:31;96969.94;;;8.74;100.00
52137;BME280;69622;49.570;10.986;2024-03-29T10:08:31;96971.44;;;8.66;100.00
52137;BME280;69622;49.570;10.986;2024-03-29T10:11:32;96970.47;;;8.96;100.00
52137;BME280;69622;49.570;10.986;2024-03-29T10:14:43;96969.50;;;9.07;100.00
52137;BME280;69622;49.570;10.986;2024-03-29T10:17:45;96986.44;;;9.02;100.00
52137;BME280;69622;49.570;10.986;2024-03-29T10:20:46;96965.84;;;8.71;100.00
52137;BME280;69622;49.570;10.986;2024-03-29T10:23:47;96950.13;;;9.02;100.00
52137;BME280;69622;49.570;10.986;2024-03-29T10:26:48;96947.25;;;9.05;100.00
52137;BME280;69622;49.570;10.986;2024-03-29T10:29:51;96934.38;;;9.32;100.00
52137;BME280;69622;49.570;10.986;2024-03-29T10:32:52;96925.22;;;9.28;100.00
52137;BME280;69622;49.570;10.986;2024-03-29T10:35:54;96915.47;;;9.49;100.00
52137;BME280;69622;49.570;10.986;2024-03-29T10:38:56;96893.47;;;9.44;100.00
52137;BME280;69622;49.570;10.986;2024-03-29T10:41:57;96886.53;;;9.72;100.00
52137;BME280;69622;49.570;10.986;2024-03-29T10:44:59;96905.94;;;9.68;100.00
52137;BME280;69622;49.570;10.986;2024-03-29T10:48:01;96907.47;;;9.88;100.00
52137;BME280;69622;49.570;10.986;2024-03-29T10:51:02;96893.31;;;9.82;100.00
52137;BME280;69622;49.570;10.986;2024-03-29T10:54:03;96892.34;;;10.01;100.00
52137;BME280;69622;49.570;10.986;2024-03-29T10:57:10;96886.66;;;9.98;100.00
52137;BME280;69622;49.570;10.986;2024-03-29T11:00:14;96857.19;;;10.07;100.00
52137;BME280;69622;49.570;10.986;2024-03-29T11:03:35;96859.38;;;10.47;100.00
52137;BME280;69622;49.570;10.986;2024-03-29T11:06:38;96872.78;;;10.25;100.00
52137;BME280;69622;49.570;10.986;2024-03-29T11:09:41;96888.94;;;10.28;100.00
52137;BME280;69622;49.570;10.986;2024-03-29T11:13:11;96879.72;;;10.34;100.00
52137;BME280;69622;49.570;10.986;2024-03-29T11:16:14;96887.88;;;10.21;100.00
52137;BME280;69622;49.570;10.986;2024-03-29T11:19:16;96887.72;;;10.40;100.00
52137;BME280;69622;49.570;10.986;2024-03-29T11:22:17;96866.09;;;10.04;100.00
52137;BME280;69622;49.570;10.986;2024-03-29T11:25:18;96866.13;;;10.22;100.00
52137;BME280;69622;49.570;10.986;2024-03-29T11:31:29;96840.56;;;10.17;100.00
52137;BME280;69622;49.570;10.986;2024-03-29T11:34:33;96840.50;;;10.09;100.00
52137;BME280;69622;49.570;10.986;2024-03-29T11:37:36;96845.25;;;10.14;100.00
52137;BME280;69622;49.570;10.986;2024-03-29T11:40:37;96845.25;;;10.14;100.00
52137;BME280;69622;49.570;10.986;2024-03-29T11:43:37;96860.91;;;10.58;100.00
52137;BME280;69622;49.570;10.986;2024-03-29T11:46:38;96870.56;;;10.47;100.00
52137;BME280;69622;49.570;10.986;2024-03-29T11:49:40;96866.00;;;10.67;100.00
52137;BME280;69622;49.570;10.986;2024-03-29T11:52:40;96882.63;;;10.31;100.00
52137;BME280;69622;49.570;10.986;2024-03-29T11:55:41;96881.13;;;10.28;100.00
52137;BME280;69622;49.570;10.986;2024-03-29T11:58:41;96871.47;;;10.38;100.00
52137;BME280;69622;49.570;10.986;2024-03-29T12:01:42;96871.38;;;10.48;100.00
52137;BME280;69622;49.570;10.986;2024-03-29T12:04:43;96862.13;;;10.71;100.00
52137;BME280;69622;49.570;10.986;2024-03-29T12:07:45;96862.03;;;10.81;100.00
52137;BME280;69622;49.570;10.986;2024-03-29T12:10:46;96856.59;;;10.66;100.00
52137;BME280;69622;49.570;10.986;2024-03-29T12:13:46;96852.00;;;10.86;100.00
52137;BME280;69622;49.570;10.986;2024-03-29T12:16:47;96847.06;;;10.75;100.00
52137;BME280;69622;49.570;10.986;2024-03-29T12:19:48;96836.78;;;11.25;100.00
52137;BME280;69622;49.570;10.986;2024-03-29T12:22:49;96830.63;;;11.00;100.00
52137;BME280;69622;49.570;10.986;2024-03-29T12:25:52;96816.53;;;11.45;100.00
52137;BME280;69622;49.570;10.986;2024-03-29T12:28:53;96805.88;;;11.22;100.00
52137;BME280;69622;49.570;10.986;2024-03-29T12:31:58;96819.13;;;11.87;100.00
52137;BME280;69622;49.570;10.986;2024-03-29T12:35:10;96804.78;;;11.91;100.00
52137;BME280;69622;49.570;10.986;2024-03-29T12:38:13;96793.72;;;11.97;100.00
52137;BME280;69622;49.570;10.986;2024-03-29T12:41:15;96800.25;;;12.02;100.00
52137;BME280;69622;49.570;10.986;2024-03-29T12:44:15;96794.19;;;12.58;100.00
52137;BME280;69622;49.570;10.986;2024-03-29T12:47:16;96781.97;;;12.58;100.00
52137;BME280;69622;49.570;10.986;2024-03-29T12:50:32;96776.56;;;12.76;100.00
52137;BME280;69622;49.570;10.986;2024-03-29T12:53:33;96771.88;;;13.27;100.00
52137;BME280;69622;49.570;10.986;2024-03-29T12:56:33;96782.78;;;13.23;100.00
52137;BME280;69622;49.570;10.986;2024-03-29T12:59:36;96771.16;;;12.94;100.00
52137;BME280;69622;49.570;10.986;2024-03-29T13:02:37;96762.59;;;13.08;100.00
52137;BME280;69622;49.570;10.986;2024-03-29T13:05:39;96761.75;;;13.16;100.00
52137;BME280;69622;49.570;10.986;2024-03-29T13:08:43;96757.25;;;13.02;100.00
52137;BME280;69622;49.570;10.986;2024-03-29T13:11:44;96757.50;;;13.23;100.00
52137;BME280;69622;49.570;10.986;2024-03-29T13:14:44;96769.78;;;13.06;100.00
52137;BME280;69622;49.570;10.986;2024-03-29T13:17:46;96764.38;;;13.16;100.00
52137;BME280;69622;49.570;10.986;2024-03-29T13:20:46;96770.28;;;13.49;100.00
52137;BME280;69622;49.570;10.986;2024-03-29T13:23:47;96767.41;;;13.36;100.00
52137;BME280;69622;49.570;10.986;2024-03-29T13:26:47;96768.03;;;13.69;100.00
52137;BME280;69622;49.570;10.986;2024-03-29T13:29:48;96768.84;;;13.38;100.00
52137;BME280;69622;49.570;10.986;2024-03-29T13:32:49;96773.72;;;13.72;100.00
52137;BME280;69622;49.570;10.986;2024-03-29T13:35:52;96771.78;;;13.74;100.00
52137;BME280;69622;49.570;10.986;2024-03-29T13:38:53;96765.84;;;14.03;100.00
52137;BME280;69622;49.570;10.986;2024-03-29T13:41:53;96766.38;;;14.22;100.00
52137;BME280;69622;49.570;10.986;2024-03-29T13:44:54;96757.31;;;14.09;100.00
52137;BME280;69622;49.570;10.986;2024-03-29T13:47:55;96753.31;;;13.76;100.00
52137;BME280;69622;49.570;10.986;2024-03-29T13:50:56;96746.91;;;14.01;100.00
52137;BME280;69622;49.570;10.986;2024-03-29T13:53:56;96749.91;;;14.36;100.00
52137;BME280;69622;49.570;10.986;2024-03-29T13:56:57;96757.78;;;14.51;100.00
52137;BME280;69622;49.570;10.986;2024-03-29T13:59:58;96745.38;;;14.30;100.00
52137;BME280;69622;49.570;10.986;2024-03-29T14:03:02;96749.44;;;14.55;100.00
52137;BME280;69622;49.570;10.986;2024-03-29T14:06:03;96743.28;;;14.78;100.00
52137;BME280;69622;49.570;10.986;2024-03-29T14:09:08;96743.75;;;14.29;100.00
52137;BME280;69622;49.570;10.986;2024-03-29T14:12:09;96748.91;;;14.89;100.00
52137;BME280;69622;49.570;10.986;2024-03-29T14:15:10;96761.19;;;14.36;100.00
52137;BME280;69622;49.570;10.986;2024-03-29T14:18:10;96769.72;;;14.97;100.00
52137;BME280;69622;49.570;10.986;2024-03-29T14:21:11;96773.13;;;15.27;100.00
52137;BME280;69622;49.570;10.986;2024-03-29T14:24:11;96780.31;;;15.04;100.00
52137;BME280;69622;49.570;10.986;2024-03-29T14:27:12;96785.44;;;14.97;100.00
52137;BME280;69622;49.570;10.986;2024-03-29T14:30:15;96795.28;;;14.95;100.00
52137;BME280;69622;49.570;10.986;2024-03-29T14:33:16;96798.00;;;15.17;100.00
52137;BME280;69622;49.570;10.986;2024-03-29T14:36:17;96808.91;;;15.06;100.00
52137;BME280;69622;49.570;10.986;2024-03-29T14:39:18;96824.97;;;15.03;100.00
52137;BME280;69622;49.570;10.986;2024-03-29T14:42:21;96833.84;;;15.31;100.00
52137;BME280;69622;49.570;10.986;2024-03-29T14:45:22;96831.66;;;15.35;100.00
52137;BME280;69622;49.570;10.986;2024-03-29T14:48:23;96830.66;;;15.50;100.00
52137;BME280;69622;49.570;10.986;2024-03-29T14:51:25;96822.88;;;15.72;100.00
52137;BME280;69622;49.570;10.986;2024-03-29T14:54:25;96812.78;;;15.10;100.00
52137;BME280;69622;49.570;10.986;2024-03-29T14:57:26;96807.56;;;15.10;100.00
52137;BME280;69622;49.570;10.986;2024-03-29T15:00:27;96799.31;;;15.27;100.00
52137;BME280;69622;49.570;10.986;2024-03-29T15:03:28;96785.91;;;15.16;100.00
52137;BME280;69622;49.570;10.986;2024-03-29T15:06:28;96785.16;;;14.78;100.00
52137;BME280;69622;49.570;10.986;2024-03-29T15:09:29;96780.38;;;15.11;100.00
52137;BME280;69622;49.570;10.986;2024-03-29T15:12:30;96782.53;;;14.63;100.00
52137;BME280;69622;49.570;10.986;2024-03-29T15:15:30;96774.63;;;15.15;100.00
52137;BME280;69622;49.570;10.986;2024-03-29T15:18:35;96775.25;;;14.88;100.00
52137;BME280;69622;49.570;10.986;2024-03-29T15:21:36;96774.50;;;14.79;100.00
52137;BME280;69622;49.570;10.986;2024-03-29T15:24:39;96776.13;;;14.95;100.00
52137;BME280;69622;49.570;10.986;2024-03-29T15:27:40;96767.28;;;15.11;100.00
52137;BME280;69622;49.570;10.986;2024-03-29T15:31:10;96754.94;;;15.19;100.00
52137;BME280;69622;49.570;10.986;2024-03-29T15:34:13;96750.69;;;15.18;100.00
52137;BME280;69622;49.570;10.986;2024-03-29T15:37:14;96747.78;;;15.13;100.00
52137;BME280;69622;49.570;10.986;2024-03-29T15:40:14;96749.63;;;15.64;100.00
52137;BME280;69622;49.570;10.986;2024-03-29T15:43:15;96744.94;;;15.44;100.00
52137;BME280;69622;49.570;10.986;2024-03-29T15:46:15;96751.69;;;15.17;100.00
52137;BME280;69622;49.570;10.986;2024-03-29T15:49:16;96747.50;;;15.23;100.00